Terminal Aerodrome Forecast
Issued by NWS

Home | Current Version | Previous Version | Text Only | Print | Product List | Glossary On
Versions: 1 2 3 4 5 6 7 8 9 10 11 12 13 14 15 16 17 18 19 20 21 22 23 24 25 26 27 28 29 30 31 32 33 34 35 36 37 38 39 40 41 42 43 44 45 46 47 48 49 50
776
FTUS41 KCTP 260934 AAD
TAFJST
TAF AMD
KJST 260934Z 2610/2706 27005KT P6SM SCT005 BKN025
      TEMPO 2610/2612 BKN006
     FM261400 30008KT P6SM SCT050
     FM262300 31004KT P6SM SCT250=

USA.gov is the U.S. government's official web portal to all federal, state and local government web resources and services.